createdAt,value
2018-12-20T00:01:32.861Z,19.60
2018-12-20T00:04:07.505Z,18.97
2018-12-20T00:06:42.192Z,20.30
2018-12-20T00:09:17.031Z,19.00
2018-12-20T00:11:51.633Z,20.23
2018-12-20T00:14:29.898Z,21.03
2018-12-20T00:18:07.686Z,20.67
2018-12-20T00:20:42.351Z,19.23
2018-12-20T00:23:16.792Z,19.40
2018-12-20T00:25:51.405Z,20.60
2018-12-20T00:28:26.183Z,20.63
2018-12-20T00:31:00.842Z,20.67
2018-12-20T00:33:35.368Z,21.33
2018-12-20T00:36:09.895Z,21.53
2018-12-20T00:38:44.554Z,21.60
2018-12-20T00:41:19.216Z,20.53
2018-12-20T00:43:53.892Z,20.37
2018-12-20T00:46:28.284Z,19.60
2018-12-20T00:49:03.055Z,20.43
2018-12-20T00:51:37.711Z,20.37
2018-12-20T00:54:12.348Z,21.00
2018-12-20T00:56:46.945Z,20.17
2018-12-20T00:59:21.562Z,21.70
2018-12-20T01:01:56.167Z,21.27
2018-12-20T01:04:30.686Z,21.30
2018-12-20T01:07:05.204Z,21.47
2018-12-20T01:09:39.723Z,19.37
2018-12-20T01:12:14.461Z,23.50
2018-12-20T01:14:48.865Z,19.87
2018-12-20T01:17:25.347Z,21.50
2018-12-20T01:20:00.015Z,21.07
2018-12-20T01:22:34.830Z,23.33
2018-12-20T01:25:09.288Z,21.83
2018-12-20T01:27:43.973Z,22.03
2018-12-20T01:30:18.568Z,22.23
2018-12-20T01:32:53.155Z,21.97
2018-12-20T01:35:27.859Z,21.80
2018-12-20T01:38:02.766Z,22.50
2018-12-20T01:40:37.279Z,21.30
2018-12-20T01:43:11.952Z,21.70
2018-12-20T01:45:46.519Z,22.10
2018-12-20T01:48:27.818Z,19.40
2018-12-20T01:51:02.238Z,19.97
2018-12-20T01:53:36.901Z,19.33
2018-12-20T01:56:11.435Z,18.73
2018-12-20T01:58:45.937Z,22.30
2018-12-20T02:01:20.950Z,21.13
2018-12-20T02:03:55.438Z,21.73
2018-12-20T02:06:30.182Z,19.97
2018-12-20T02:09:08.646Z,19.67
2018-12-20T02:11:43.171Z,20.43
2018-12-20T02:14:17.898Z,21.73
2018-12-20T02:16:52.372Z,19.97
2018-12-20T02:19:27.140Z,20.43
2018-12-20T02:22:01.944Z,19.57
2018-12-20T02:24:36.420Z,20.60
2018-12-20T02:27:11.179Z,20.47
2018-12-20T02:29:46.022Z,22.07
2018-12-20T02:32:21.029Z,23.57
2018-12-20T02:34:55.640Z,20.97
2018-12-20T02:37:31.260Z,21.10
2018-12-20T02:40:06.192Z,20.00
2018-12-20T02:42:40.787Z,19.90
2018-12-20T02:45:15.241Z,21.20
2018-12-20T02:47:50.275Z,21.13
2018-12-20T02:50:24.794Z,22.07
2018-12-20T02:52:59.302Z,20.90
2018-12-20T02:55:34.088Z,20.60
2018-12-20T02:58:08.897Z,19.73
2018-12-20T03:00:43.525Z,20.17
2018-12-20T03:03:18.256Z,22.50
2018-12-20T03:05:52.965Z,19.80
2018-12-20T03:08:27.512Z,21.70
2018-12-20T03:11:02.144Z,21.10
2018-12-20T03:13:36.922Z,21.33
2018-12-20T03:16:11.822Z,21.63
2018-12-20T03:18:46.489Z,20.93
2018-12-20T03:21:21.086Z,21.63
2018-12-20T03:23:55.911Z,19.53
2018-12-20T03:26:30.691Z,21.20
2018-12-20T03:29:05.355Z,22.20
2018-12-20T03:31:39.903Z,22.73
2018-12-20T03:34:14.665Z,21.60
2018-12-20T03:36:49.373Z,21.77
2018-12-20T03:39:23.927Z,20.83
2018-12-20T03:41:58.672Z,21.80
2018-12-20T03:44:33.215Z,21.43
2018-12-20T03:47:07.703Z,22.10
2018-12-20T03:49:42.589Z,22.73
2018-12-20T03:52:17.420Z,23.13
2018-12-20T03:54:52.083Z,22.27
2018-12-20T03:57:26.683Z,23.20
2018-12-20T04:00:01.467Z,21.07
2018-12-20T04:02:36.036Z,23.67
2018-12-20T04:05:10.759Z,22.73
2018-12-20T04:07:45.144Z,26.20
2018-12-20T04:10:19.721Z,23.23
2018-12-20T04:12:54.256Z,24.53
2018-12-20T04:15:37.574Z,25.50
2018-12-20T04:18:05.817Z,24.47
2018-12-20T04:20:40.417Z,24.93
2018-12-20T04:23:15.051Z,27.77
2018-12-20T04:25:49.717Z,25.80
2018-12-20T04:28:24.213Z,25.57
2018-12-20T04:30:58.608Z,27.37
2018-12-20T04:33:33.047Z,23.70
2018-12-20T04:36:07.689Z,24.77
2018-12-20T04:38:42.493Z,23.93
2018-12-20T04:41:16.934Z,25.10
2018-12-20T04:43:51.482Z,26.70
2018-12-20T04:46:26.024Z,25.90
2018-12-20T04:49:00.554Z,26.27
2018-12-20T04:51:35.375Z,25.00
2018-12-20T04:54:09.919Z,26.60
2018-12-20T04:56:44.679Z,26.20
2018-12-20T04:59:19.277Z,27.10
2018-12-20T05:01:53.794Z,26.77
2018-12-20T05:04:28.565Z,25.60
2018-12-20T05:07:03.082Z,26.23
2018-12-20T05:09:37.546Z,25.67
2018-12-20T05:12:12.022Z,25.13
2018-12-20T05:14:46.693Z,26.20
2018-12-20T05:17:21.261Z,25.80
2018-12-20T05:19:56.027Z,24.63
2018-12-20T05:22:30.619Z,26.10
2018-12-20T05:25:05.701Z,24.87
2018-12-20T05:27:40.482Z,25.80
2018-12-20T05:30:15.384Z,23.30
2018-12-20T05:32:50.337Z,23.40
2018-12-20T05:35:25.141Z,27.00
2018-12-20T05:37:59.575Z,24.73
2018-12-20T05:40:34.211Z,23.40
2018-12-20T05:43:08.579Z,24.90
2018-12-20T05:45:43.412Z,24.13
2018-12-20T05:48:18.163Z,23.03
2018-12-20T05:50:53.073Z,23.33
2018-12-20T05:53:27.736Z,22.30
2018-12-20T05:56:08.640Z,23.40
2018-12-20T05:58:44.545Z,22.27
2018-12-20T06:01:19.383Z,24.47
2018-12-20T06:03:53.970Z,25.03
2018-12-20T06:06:28.466Z,22.67
2018-12-20T06:09:05.079Z,23.57
2018-12-20T06:11:39.851Z,22.27
2018-12-20T06:14:14.541Z,24.73
2018-12-20T06:16:49.523Z,22.70
2018-12-20T06:19:24.009Z,21.70
2018-12-20T06:21:58.859Z,23.40
2018-12-20T06:24:33.528Z,22.77
2018-12-20T06:27:08.260Z,23.47
2018-12-20T06:29:42.688Z,23.00
2018-12-20T06:32:17.099Z,22.40
2018-12-20T06:34:51.785Z,23.47
2018-12-20T06:37:26.355Z,24.27
2018-12-20T06:40:00.858Z,21.73
2018-12-20T06:42:35.311Z,24.50
2018-12-20T06:45:09.892Z,22.97
2018-12-20T06:47:44.396Z,25.13
2018-12-20T06:50:18.980Z,23.93
2018-12-20T06:52:53.531Z,22.83
2018-12-20T06:55:28.109Z,24.57
2018-12-20T06:58:02.656Z,23.97
2018-12-20T07:00:37.307Z,23.33
2018-12-20T07:03:11.844Z,22.37
2018-12-20T07:05:46.404Z,21.67
2018-12-20T07:08:20.980Z,24.27
2018-12-20T07:10:55.580Z,21.80
2018-12-20T07:13:30.199Z,22.53
2018-12-20T07:16:04.635Z,23.67
2018-12-20T07:18:39.282Z,24.70
2018-12-20T07:21:13.783Z,22.70
2018-12-20T07:23:48.770Z,22.70
2018-12-20T07:26:23.308Z,23.20
2018-12-20T07:28:57.919Z,24.77
2018-12-20T07:31:32.427Z,24.20
2018-12-20T07:34:06.871Z,23.77
2018-12-20T07:36:41.496Z,21.43
2018-12-20T07:39:15.843Z,24.63
2018-12-20T07:41:56.904Z,24.00
2018-12-20T07:44:31.384Z,24.30
2018-12-20T07:47:05.777Z,24.23
2018-12-20T07:49:41.007Z,24.57
2018-12-20T07:52:15.509Z,21.67
2018-12-20T07:54:50.291Z,23.13
2018-12-20T07:57:25.653Z,22.50
2018-12-20T08:00:01.438Z,22.97
2018-12-20T08:02:37.191Z,21.83
2018-12-20T08:05:11.764Z,23.07
2018-12-20T08:07:46.403Z,23.10
2018-12-20T08:10:21.110Z,21.80
2018-12-20T08:12:56.101Z,20.70
2018-12-20T08:15:30.711Z,21.43
2018-12-20T08:18:06.041Z,21.50
2018-12-20T08:20:40.605Z,22.30
2018-12-20T08:23:15.041Z,19.80
2018-12-20T08:25:50.153Z,21.70
2018-12-20T08:28:24.709Z,21.60
2018-12-20T08:30:59.307Z,19.93
2018-12-20T08:33:33.723Z,22.40
2018-12-20T08:36:08.304Z,21.23
2018-12-20T08:38:42.812Z,18.67
2018-12-20T08:41:17.400Z,20.50
2018-12-20T08:43:51.885Z,19.53
2018-12-20T08:46:26.324Z,19.33
2018-12-20T08:49:00.855Z,18.90
2018-12-20T08:51:37.276Z,19.03
2018-12-20T08:54:11.904Z,23.17
2018-12-20T08:56:46.514Z,21.20
2018-12-20T08:59:21.080Z,20.07
2018-12-20T09:01:55.542Z,19.20
2018-12-20T09:04:29.962Z,20.80
2018-12-20T09:07:04.588Z,18.80
2018-12-20T09:09:39.195Z,19.43
2018-12-20T09:12:13.703Z,19.30
2018-12-20T09:14:48.284Z,18.67
2018-12-20T09:17:22.936Z,19.37
2018-12-20T09:19:57.583Z,17.80
2018-12-20T09:22:32.075Z,18.67
2018-12-20T09:25:06.887Z,19.07
2018-12-20T09:27:41.509Z,18.83
2018-12-20T09:30:16.252Z,19.73
2018-12-20T09:32:50.824Z,19.17
2018-12-20T09:35:26.478Z,19.20
2018-12-20T09:38:01.186Z,17.50
2018-12-20T09:40:35.601Z,19.43
2018-12-20T09:43:11.147Z,19.53
2018-12-20T09:45:45.603Z,16.70
2018-12-20T09:48:20.108Z,18.30
2018-12-20T09:50:54.832Z,18.10
2018-12-20T09:53:29.411Z,17.07
2018-12-20T09:56:03.832Z,16.50
2018-12-20T09:58:38.277Z,17.43
2018-12-20T10:01:12.853Z,19.10
2018-12-20T10:03:47.392Z,19.03
2018-12-20T10:06:21.964Z,17.50
2018-12-20T10:08:57.196Z,18.00
2018-12-20T10:11:31.655Z,16.60
2018-12-20T10:14:06.400Z,17.03
2018-12-20T10:16:40.851Z,18.30
2018-12-20T10:19:15.429Z,16.70
2018-12-20T10:21:49.919Z,18.20
2018-12-20T10:24:24.520Z,18.10
2018-12-20T10:26:59.176Z,19.07
2018-12-20T10:29:33.760Z,17.70
2018-12-20T10:32:08.264Z,18.73
2018-12-20T10:34:42.951Z,19.10
2018-12-20T10:37:17.511Z,19.90
2018-12-20T10:39:52.183Z,18.83
2018-12-20T10:42:26.529Z,18.33
2018-12-20T10:45:01.100Z,19.53
2018-12-20T10:47:35.684Z,17.20
2018-12-20T10:50:10.439Z,18.80
2018-12-20T10:52:45.027Z,18.57
2018-12-20T10:55:19.653Z,17.50
2018-12-20T10:57:54.287Z,17.33
2018-12-20T11:00:32.934Z,17.97
2018-12-20T11:03:13.008Z,17.30
2018-12-20T11:05:53.090Z,17.13
2018-12-20T11:08:29.864Z,17.13
2018-12-20T11:11:06.822Z,17.47
2018-12-20T11:13:41.176Z,17.03
2018-12-20T11:16:15.786Z,15.63
2018-12-20T11:18:50.240Z,17.13
2018-12-20T11:21:24.756Z,17.10
2018-12-20T11:23:59.141Z,18.80
2018-12-20T11:26:33.504Z,18.00
2018-12-20T11:29:08.084Z,16.37
2018-12-20T11:31:42.652Z,17.63
2018-12-20T11:34:17.859Z,18.77
2018-12-20T11:36:52.208Z,16.73
2018-12-20T11:39:26.744Z,19.00
2018-12-20T11:42:01.366Z,16.80
2018-12-20T11:44:35.819Z,16.57
2018-12-20T11:47:14.624Z,17.40
2018-12-20T11:49:49.264Z,16.07
2018-12-20T11:52:24.074Z,16.03
2018-12-20T11:54:58.555Z,18.33
2018-12-20T11:57:33.185Z,17.93
2018-12-20T12:00:10.144Z,18.23
2018-12-20T12:02:44.725Z,15.70
2018-12-20T12:05:19.248Z,15.30
2018-12-20T12:07:53.907Z,15.67
2018-12-20T12:10:28.293Z,16.73
2018-12-20T12:13:02.770Z,15.17
2018-12-20T12:15:37.358Z,15.20
2018-12-20T12:18:11.868Z,16.37
2018-12-20T12:20:46.537Z,15.93
2018-12-20T12:23:21.089Z,16.20
2018-12-20T12:25:55.836Z,17.10
2018-12-20T12:28:30.839Z,15.50
2018-12-20T12:31:05.532Z,14.53
2018-12-20T12:33:40.027Z,15.10
2018-12-20T12:36:14.603Z,13.40
2018-12-20T12:38:49.373Z,14.57
2018-12-20T12:41:23.920Z,15.53
2018-12-20T12:43:58.280Z,14.57
2018-12-20T12:46:32.960Z,13.30
2018-12-20T12:49:07.659Z,14.60
2018-12-20T12:51:43.739Z,13.43
2018-12-20T12:54:18.428Z,12.10
2018-12-20T12:56:53.003Z,12.60
2018-12-20T12:59:28.327Z,11.90
2018-12-20T13:02:02.799Z,13.60
2018-12-20T13:04:37.235Z,13.53
2018-12-20T13:07:11.976Z,13.00
2018-12-20T13:09:46.764Z,12.77
2018-12-20T13:12:25.049Z,11.80
2018-12-20T13:14:59.544Z,11.80
2018-12-20T13:17:33.997Z,12.80
2018-12-20T13:20:10.159Z,12.43
2018-12-20T13:22:44.663Z,12.23
2018-12-20T13:25:19.163Z,12.57
2018-12-20T13:27:54.407Z,14.30
2018-12-20T13:30:28.963Z,13.03
2018-12-20T13:33:03.576Z,14.20
2018-12-20T13:35:37.997Z,13.07
2018-12-20T13:38:13.618Z,13.17
2018-12-20T13:40:48.319Z,13.57
2018-12-20T13:43:22.808Z,14.83
2018-12-20T13:45:57.461Z,14.20
2018-12-20T13:48:31.875Z,11.80
2018-12-20T13:51:06.550Z,11.17
2018-12-20T13:53:41.060Z,11.40
2018-12-20T13:56:15.613Z,10.43
2018-12-20T13:58:50.011Z,10.57
2018-12-20T14:01:24.636Z,10.50
2018-12-20T14:03:59.252Z,9.70
2018-12-20T14:06:33.620Z,8.90
2018-12-20T14:09:09.634Z,8.60
2018-12-20T14:11:44.163Z,7.80
2018-12-20T14:14:18.794Z,7.30
2018-12-20T14:16:53.369Z,8.23
2018-12-20T14:19:27.832Z,7.33
2018-12-20T14:22:02.414Z,8.27
2018-12-20T14:24:36.762Z,7.30
2018-12-20T14:27:12.620Z,7.33
2018-12-20T14:29:47.584Z,7.60
2018-12-20T14:32:21.983Z,6.00
2018-12-20T14:34:56.541Z,6.87
2018-12-20T14:37:31.143Z,5.83
2018-12-20T14:40:08.056Z,6.00
2018-12-20T14:42:42.499Z,5.33
2018-12-20T14:45:17.061Z,6.03
2018-12-20T14:47:51.675Z,5.43
2018-12-20T14:50:26.311Z,6.00
2018-12-20T14:53:00.936Z,4.50
2018-12-20T14:55:35.407Z,5.37
2018-12-20T14:58:09.971Z,6.07
2018-12-20T15:00:44.710Z,5.70
2018-12-20T15:03:19.151Z,6.07
2018-12-20T15:05:53.843Z,5.70
2018-12-20T15:08:28.395Z,5.03
2018-12-20T15:11:03.056Z,6.20
2018-12-20T15:13:37.459Z,6.70
2018-12-20T15:16:12.076Z,6.30
2018-12-20T15:18:47.826Z,5.90
2018-12-20T15:21:22.927Z,6.10
2018-12-20T15:23:57.348Z,5.23
2018-12-20T15:26:31.884Z,5.40
2018-12-20T15:29:06.363Z,5.97
2018-12-20T15:31:41.046Z,6.40
2018-12-20T15:34:16.089Z,6.00
2018-12-20T15:36:50.564Z,6.10
2018-12-20T15:39:25.280Z,6.67
2018-12-20T15:42:00.116Z,5.60
2018-12-20T15:44:35.110Z,6.50
2018-12-20T15:47:09.674Z,5.67
2018-12-20T15:49:44.146Z,7.23
2018-12-20T15:52:18.723Z,6.13
2018-12-20T15:54:53.415Z,5.80
2018-12-20T15:57:28.040Z,6.50
2018-12-20T16:00:02.724Z,7.00
2018-12-20T16:02:38.265Z,7.00
2018-12-20T16:05:12.811Z,5.90
2018-12-20T16:07:49.263Z,6.20
2018-12-20T16:10:23.820Z,6.80
2018-12-20T16:12:58.233Z,6.27
2018-12-20T16:15:32.710Z,4.90
2018-12-20T16:18:07.256Z,6.23
2018-12-20T16:20:41.672Z,6.50
2018-12-20T16:23:16.159Z,7.00
2018-12-20T16:25:50.467Z,5.47
2018-12-20T16:28:25.086Z,5.67
2018-12-20T16:30:59.536Z,5.73
2018-12-20T16:33:33.976Z,5.53
2018-12-20T16:36:08.504Z,4.77
2018-12-20T16:38:43.135Z,5.23
2018-12-20T16:41:17.524Z,4.93
2018-12-20T16:43:52.156Z,4.70
2018-12-20T16:46:26.683Z,5.10
2018-12-20T16:49:01.283Z,5.27
2018-12-20T16:51:36.812Z,4.87
2018-12-20T16:54:11.302Z,4.90
2018-12-20T16:56:45.676Z,4.37
2018-12-20T16:59:20.219Z,4.73
2018-12-20T17:01:54.735Z,4.27
2018-12-20T17:04:29.505Z,5.10
2018-12-20T17:07:05.845Z,4.80
2018-12-20T17:09:40.875Z,4.33
2018-12-20T17:12:15.337Z,4.67
2018-12-20T17:14:49.995Z,4.10
2018-12-20T17:17:24.678Z,4.23
2018-12-20T17:19:59.927Z,4.93
2018-12-20T17:22:34.593Z,4.07
2018-12-20T17:25:09.503Z,4.20
2018-12-20T17:27:45.866Z,4.90
2018-12-20T17:30:20.535Z,4.67
2018-12-20T17:32:55.253Z,4.90
2018-12-20T17:35:29.691Z,4.60
2018-12-20T17:38:04.232Z,3.73
2018-12-20T17:40:40.001Z,3.97
2018-12-20T17:43:14.443Z,4.20
2018-12-20T17:45:49.177Z,3.77
2018-12-20T17:48:33.692Z,3.40
2018-12-20T17:51:09.768Z,3.80
2018-12-20T17:53:45.684Z,3.57
2018-12-20T17:56:20.103Z,4.00
2018-12-20T17:58:54.541Z,3.10
2018-12-20T18:01:30.532Z,3.33
2018-12-20T18:04:04.996Z,2.83
2018-12-20T18:06:39.387Z,3.50
2018-12-20T18:09:13.968Z,3.80
2018-12-20T18:11:50.884Z,3.00
2018-12-20T18:14:26.176Z,2.87
2018-12-20T18:17:03.124Z,2.57
2018-12-20T18:19:41.566Z,3.40
2018-12-20T18:22:18.448Z,2.70
2018-12-20T18:24:53.832Z,2.50
2018-12-20T18:27:40.427Z,2.37
2018-12-20T18:30:20.853Z,2.40
2018-12-20T18:32:55.447Z,2.50
2018-12-20T18:35:29.892Z,2.63
2018-12-20T18:38:04.506Z,2.50
2018-12-20T18:40:39.103Z,2.43
2018-12-20T18:43:13.639Z,3.10
2018-12-20T18:45:48.165Z,2.70
2018-12-20T18:48:22.967Z,2.83
2018-12-20T18:50:57.539Z,2.10
2018-12-20T18:53:32.063Z,2.60
2018-12-20T18:56:06.688Z,2.53
2018-12-20T18:58:41.205Z,18.70
2018-12-20T19:01:15.753Z,2.87
2018-12-20T19:03:50.691Z,3.20
2018-12-20T19:06:25.164Z,3.00
2018-12-20T19:08:59.644Z,2.27
2018-12-20T19:11:34.999Z,2.50
2018-12-20T19:14:09.514Z,2.00
2018-12-20T19:16:44.048Z,2.30
2018-12-20T19:19:18.752Z,2.17
2018-12-20T19:21:53.282Z,2.20
2018-12-20T19:24:27.959Z,2.27
2018-12-20T19:27:02.644Z,2.70
2018-12-20T19:29:38.074Z,3.07
2018-12-20T19:32:12.789Z,2.73
2018-12-20T19:34:47.491Z,2.90
2018-12-20T19:37:22.162Z,2.77
2018-12-20T19:40:00.944Z,3.53
2018-12-20T19:42:35.489Z,3.10
2018-12-20T19:45:10.155Z,2.50
2018-12-20T19:47:44.842Z,3.20
2018-12-20T19:50:21.898Z,2.70
2018-12-20T19:52:56.779Z,2.37
2018-12-20T19:55:31.317Z,3.00
2018-12-20T19:58:05.895Z,3.10
2018-12-20T20:00:40.408Z,3.33
2018-12-20T20:03:14.772Z,2.90
2018-12-20T20:05:53.051Z,3.27
2018-12-20T20:08:27.542Z,3.23
2018-12-20T20:11:02.235Z,3.27
2018-12-20T20:13:37.835Z,5.03
2018-12-20T20:16:12.311Z,3.27
2018-12-20T20:18:46.865Z,3.70
2018-12-20T20:21:24.177Z,3.40
2018-12-20T20:23:58.923Z,3.57
2018-12-20T20:26:33.676Z,3.20
2018-12-20T20:29:08.371Z,3.90
2018-12-20T20:31:48.670Z,5.47
2018-12-20T20:34:23.276Z,4.17
2018-12-20T20:37:09.752Z,4.03
2018-12-20T20:39:44.544Z,4.63
2018-12-20T20:42:25.484Z,4.10
2018-12-20T20:45:00.006Z,7.00
2018-12-20T20:47:34.375Z,4.70
2018-12-20T20:50:09.327Z,4.30
2018-12-20T20:52:45.122Z,4.50
2018-12-20T20:55:21.782Z,5.30
2018-12-20T20:57:56.336Z,4.97
2018-12-20T21:00:30.938Z,4.83
2018-12-20T21:03:05.659Z,4.70
2018-12-20T21:05:40.320Z,4.53
2018-12-20T21:08:14.816Z,4.77
2018-12-20T21:10:49.296Z,6.40
2018-12-20T21:13:23.675Z,5.20
2018-12-20T21:15:58.620Z,5.23
2018-12-20T21:18:33.195Z,5.03
2018-12-20T21:21:07.696Z,5.17
2018-12-20T21:23:42.352Z,7.03
2018-12-20T21:26:16.771Z,5.50
2018-12-20T21:28:51.404Z,5.10
2018-12-20T21:31:25.831Z,5.20
2018-12-20T21:34:00.522Z,5.00
2018-12-20T21:36:35.181Z,4.37
2018-12-20T21:39:09.832Z,5.13
2018-12-20T21:41:44.245Z,5.33
2018-12-20T21:44:18.698Z,4.53
2018-12-20T21:46:53.264Z,5.87
2018-12-20T21:49:27.708Z,5.60
2018-12-20T21:52:02.416Z,4.30
2018-12-20T21:54:37.556Z,4.33
2018-12-20T21:57:12.208Z,5.35
2018-12-20T21:59:48.627Z,5.03
2018-12-20T22:02:23.363Z,4.57
2018-12-20T22:04:57.890Z,5.17
2018-12-20T22:07:32.408Z,4.47
2018-12-20T22:10:08.095Z,4.10
2018-12-20T22:12:43.696Z,3.87
2018-12-20T22:15:18.286Z,3.57
2018-12-20T22:17:52.665Z,3.93
2018-12-20T22:20:27.232Z,4.23
2018-12-20T22:23:03.332Z,4.10
2018-12-20T22:25:37.836Z,4.30
2018-12-20T22:28:12.255Z,4.20
2018-12-20T22:30:46.705Z,4.13
2018-12-20T22:33:21.277Z,3.57
2018-12-20T22:35:55.848Z,3.83
2018-12-20T22:38:30.541Z,3.90
2018-12-20T22:41:05.119Z,4.20
2018-12-20T22:43:39.751Z,3.90
2018-12-20T22:46:15.413Z,4.23
2018-12-20T22:48:51.068Z,3.47
2018-12-20T22:51:25.648Z,4.10
2018-12-20T22:54:00.336Z,3.90
2018-12-20T22:56:35.092Z,4.73
2018-12-20T22:59:09.716Z,4.07
2018-12-20T23:01:45.571Z,4.40
2018-12-20T23:04:21.036Z,3.60
2018-12-20T23:06:56.328Z,3.50
2018-12-20T23:12:23.702Z,3.80
2018-12-20T23:15:00.094Z,4.40
2018-12-20T23:17:59.827Z,4.17
2018-12-20T23:20:35.147Z,4.07
2018-12-20T23:23:12.601Z,3.80
2018-12-20T23:25:50.467Z,3.90
2018-12-20T23:28:27.904Z,4.10
2018-12-20T23:31:16.133Z,4.67
2018-12-20T23:33:52.189Z,4.50
2018-12-20T23:36:30.081Z,4.13
2018-12-20T23:39:08.012Z,4.40
2018-12-20T23:41:57.599Z,4.07
2018-12-20T23:44:36.938Z,4.33
2018-12-20T23:47:13.082Z,4.30
2018-12-20T23:50:06.300Z,4.57
2018-12-20T23:52:49.514Z,4.60
2018-12-20T23:55:24.134Z,4.00
2018-12-20T23:58:01.841Z,3.77
